sensor_id;sensor_type;location;lat;lon;timestamp;P1;durP1;ratioP1;P2;durP2;ratioP2
40204;SDS011;26963;42.666;23.366;2022-11-20T00:01:39;10.60;;;7.43;;
40204;SDS011;26963;42.666;23.366;2022-11-20T00:04:05;10.52;;;7.78;;
40204;SDS011;26963;42.666;23.366;2022-11-20T00:06:31;11.52;;;7.70;;
40204;SDS011;26963;42.666;23.366;2022-11-20T00:08:57;10.57;;;7.30;;
40204;SDS011;26963;42.666;23.366;2022-11-20T00:11:25;11.38;;;8.25;;
40204;SDS011;26963;42.666;23.366;2022-11-20T00:13:53;14.45;;;8.05;;
40204;SDS011;26963;42.666;23.366;2022-11-20T00:16:21;13.88;;;7.38;;
40204;SDS011;26963;42.666;23.366;2022-11-20T00:18:48;10.75;;;6.72;;
40204;SDS011;26963;42.666;23.366;2022-11-20T00:21:14;12.35;;;8.05;;
40204;SDS011;26963;42.666;23.366;2022-11-20T00:23:42;12.20;;;7.95;;
40204;SDS011;26963;42.666;23.366;2022-11-20T00:26:09;12.63;;;6.88;;
40204;SDS011;26963;42.666;23.366;2022-11-20T00:28:36;11.68;;;6.35;;
40204;SDS011;26963;42.666;23.366;2022-11-20T00:31:10;11.48;;;7.15;;
40204;SDS011;26963;42.666;23.366;2022-11-20T00:33:38;9.15;;;6.13;;
40204;SDS011;26963;42.666;23.366;2022-11-20T00:36:08;12.75;;;6.82;;
40204;SDS011;26963;42.666;23.366;2022-11-20T00:38:35;8.73;;;5.70;;
40204;SDS011;26963;42.666;23.366;2022-11-20T00:41:02;8.93;;;5.40;;
40204;SDS011;26963;42.666;23.366;2022-11-20T00:43:29;10.25;;;5.38;;
40204;SDS011;26963;42.666;23.366;2022-11-20T00:45:58;8.73;;;4.30;;
40204;SDS011;26963;42.666;23.366;2022-11-20T00:48:29;11.57;;;5.03;;
40204;SDS011;26963;42.666;23.366;2022-11-20T00:50:55;6.72;;;3.92;;
40204;SDS011;26963;42.666;23.366;2022-11-20T00:53:21;7.13;;;5.00;;
40204;SDS011;26963;42.666;23.366;2022-11-20T00:55:56;6.38;;;3.63;;
40204;SDS011;26963;42.666;23.366;2022-11-20T00:58:24;6.97;;;2.50;;
40204;SDS011;26963;42.666;23.366;2022-11-20T01:00:53;5.75;;;3.08;;
40204;SDS011;26963;42.666;23.366;2022-11-20T01:03:24;7.60;;;3.53;;
40204;SDS011;26963;42.666;23.366;2022-11-20T01:05:49;7.80;;;3.22;;
40204;SDS011;26963;42.666;23.366;2022-11-20T01:08:15;7.45;;;3.42;;
40204;SDS011;26963;42.666;23.366;2022-11-20T01:10:40;4.97;;;2.65;;
40204;SDS011;26963;42.666;23.366;2022-11-20T01:13:06;5.93;;;2.88;;
40204;SDS011;26963;42.666;23.366;2022-11-20T01:15:50;4.10;;;2.55;;
40204;SDS011;26963;42.666;23.366;2022-11-20T01:18:15;6.95;;;2.55;;
40204;SDS011;26963;42.666;23.366;2022-11-20T01:20:41;6.03;;;2.70;;
40204;SDS011;26963;42.666;23.366;2022-11-20T01:23:06;5.95;;;2.53;;
40204;SDS011;26963;42.666;23.366;2022-11-20T01:25:33;6.45;;;2.40;;
40204;SDS011;26963;42.666;23.366;2022-11-20T01:27:59;6.55;;;2.83;;
40204;SDS011;26963;42.666;23.366;2022-11-20T01:30:24;7.78;;;3.05;;
40204;SDS011;26963;42.666;23.366;2022-11-20T01:32:50;6.30;;;2.90;;
40204;SDS011;26963;42.666;23.366;2022-11-20T01:35:16;6.95;;;3.10;;
40204;SDS011;26963;42.666;23.366;2022-11-20T01:37:41;6.72;;;3.20;;
40204;SDS011;26963;42.666;23.366;2022-11-20T01:40:07;7.38;;;3.35;;
40204;SDS011;26963;42.666;23.366;2022-11-20T01:42:33;6.22;;;3.38;;
40204;SDS011;26963;42.666;23.366;2022-11-20T01:51:34;9.68;;;3.17;;
40204;SDS011;26963;42.666;23.366;2022-11-20T01:54:08;6.68;;;3.30;;
40204;SDS011;26963;42.666;23.366;2022-11-20T01:56:40;7.30;;;3.53;;
40204;SDS011;26963;42.666;23.366;2022-11-20T01:59:08;9.07;;;3.83;;
40204;SDS011;26963;42.666;23.366;2022-11-20T02:01:36;7.65;;;4.32;;
40204;SDS011;26963;42.666;23.366;2022-11-20T02:04:01;7.72;;;3.45;;
40204;SDS011;26963;42.666;23.366;2022-11-20T02:06:29;6.43;;;3.40;;
40204;SDS011;26963;42.666;23.366;2022-11-20T02:09:00;6.85;;;3.75;;
40204;SDS011;26963;42.666;23.366;2022-11-20T02:11:25;8.40;;;3.50;;
40204;SDS011;26963;42.666;23.366;2022-11-20T02:13:51;4.97;;;2.63;;
40204;SDS011;26963;42.666;23.366;2022-11-20T02:18:51;6.88;;;3.55;;
40204;SDS011;26963;42.666;23.366;2022-11-20T02:21:24;4.70;;;2.95;;
40204;SDS011;26963;42.666;23.366;2022-11-20T02:24:09;5.22;;;2.90;;
40204;SDS011;26963;42.666;23.366;2022-11-20T02:27:23;6.80;;;2.10;;
40204;SDS011;26963;42.666;23.366;2022-11-20T02:29:34;4.95;;;2.60;;
40204;SDS011;26963;42.666;23.366;2022-11-20T02:32:04;4.63;;;2.40;;
40204;SDS011;26963;42.666;23.366;2022-11-20T02:34:30;4.65;;;2.50;;
40204;SDS011;26963;42.666;23.366;2022-11-20T02:36:56;4.18;;;2.20;;
40204;SDS011;26963;42.666;23.366;2022-11-20T02:39:22;2.17;;;1.15;;
40204;SDS011;26963;42.666;23.366;2022-11-20T02:41:50;4.75;;;1.50;;
40204;SDS011;26963;42.666;23.366;2022-11-20T02:44:18;2.95;;;1.50;;
40204;SDS011;26963;42.666;23.366;2022-11-20T02:46:45;2.80;;;1.20;;
40204;SDS011;26963;42.666;23.366;2022-11-20T02:49:10;3.05;;;1.00;;
40204;SDS011;26963;42.666;23.366;2022-11-20T02:51:36;2.95;;;1.00;;
40204;SDS011;26963;42.666;23.366;2022-11-20T02:54:02;1.60;;;0.82;;
40204;SDS011;26963;42.666;23.366;2022-11-20T02:56:28;2.92;;;1.00;;
40204;SDS011;26963;42.666;23.366;2022-11-20T02:58:53;1.77;;;0.80;;
40204;SDS011;26963;42.666;23.366;2022-11-20T03:01:19;6.68;;;1.20;;
40204;SDS011;26963;42.666;23.366;2022-11-20T03:03:45;3.40;;;1.25;;
40204;SDS011;26963;42.666;23.366;2022-11-20T03:06:13;2.38;;;1.10;;
40204;SDS011;26963;42.666;23.366;2022-11-20T03:08:39;2.78;;;0.85;;
40204;SDS011;26963;42.666;23.366;2022-11-20T03:11:06;4.38;;;1.48;;
40204;SDS011;26963;42.666;23.366;2022-11-20T03:13:32;3.33;;;1.38;;
40204;SDS011;26963;42.666;23.366;2022-11-20T03:16:04;2.58;;;1.10;;
40204;SDS011;26963;42.666;23.366;2022-11-20T03:18:33;5.63;;;1.25;;
40204;SDS011;26963;42.666;23.366;2022-11-20T03:20:59;3.78;;;1.00;;
40204;SDS011;26963;42.666;23.366;2022-11-20T03:23:24;4.18;;;1.65;;
40204;SDS011;26963;42.666;23.366;2022-11-20T03:25:50;2.92;;;1.10;;
40204;SDS011;26963;42.666;23.366;2022-11-20T03:28:16;4.85;;;1.40;;
40204;SDS011;26963;42.666;23.366;2022-11-20T03:30:41;3.25;;;1.10;;
40204;SDS011;26963;42.666;23.366;2022-11-20T03:33:07;3.55;;;1.30;;
40204;SDS011;26963;42.666;23.366;2022-11-20T03:35:32;3.25;;;1.20;;
40204;SDS011;26963;42.666;23.366;2022-11-20T03:37:58;2.03;;;1.20;;
40204;SDS011;26963;42.666;23.366;2022-11-20T03:40:23;3.03;;;0.93;;
40204;SDS011;26963;42.666;23.366;2022-11-20T03:42:49;4.22;;;1.15;;
40204;SDS011;26963;42.666;23.366;2022-11-20T03:45:16;2.35;;;1.00;;
40204;SDS011;26963;42.666;23.366;2022-11-20T03:47:43;3.63;;;1.30;;
40204;SDS011;26963;42.666;23.366;2022-11-20T03:50:10;2.58;;;1.00;;
40204;SDS011;26963;42.666;23.366;2022-11-20T03:52:39;3.05;;;1.10;;
40204;SDS011;26963;42.666;23.366;2022-11-20T03:55:05;3.03;;;1.20;;
40204;SDS011;26963;42.666;23.366;2022-11-20T03:57:32;3.40;;;1.30;;
40204;SDS011;26963;42.666;23.366;2022-11-20T03:59:57;3.92;;;1.10;;
40204;SDS011;26963;42.666;23.366;2022-11-20T04:02:23;5.38;;;1.27;;
40204;SDS011;26963;42.666;23.366;2022-11-20T04:04:48;2.17;;;1.35;;
40204;SDS011;26963;42.666;23.366;2022-11-20T04:07:14;5.68;;;1.20;;
40204;SDS011;26963;42.666;23.366;2022-11-20T04:09:39;2.95;;;1.00;;
40204;SDS011;26963;42.666;23.366;2022-11-20T04:12:05;3.28;;;1.30;;
40204;SDS011;26963;42.666;23.366;2022-11-20T04:14:30;2.72;;;0.95;;
40204;SDS011;26963;42.666;23.366;2022-11-20T04:16:56;2.85;;;1.10;;
40204;SDS011;26963;42.666;23.366;2022-11-20T04:19:21;4.22;;;1.27;;
40204;SDS011;26963;42.666;23.366;2022-11-20T04:21:47;5.18;;;1.50;;
40204;SDS011;26963;42.666;23.366;2022-11-20T04:24:12;3.25;;;1.13;;
40204;SDS011;26963;42.666;23.366;2022-11-20T04:26:38;2.63;;;1.20;;
40204;SDS011;26963;42.666;23.366;2022-11-20T04:29:04;2.65;;;1.00;;
40204;SDS011;26963;42.666;23.366;2022-11-20T04:31:31;2.45;;;0.88;;
40204;SDS011;26963;42.666;23.366;2022-11-20T04:33:59;1.88;;;0.95;;
40204;SDS011;26963;42.666;23.366;2022-11-20T04:36:26;2.47;;;1.05;;
40204;SDS011;26963;42.666;23.366;2022-11-20T04:38:56;4.53;;;1.00;;
40204;SDS011;26963;42.666;23.366;2022-11-20T04:41:27;4.05;;;1.00;;
40204;SDS011;26963;42.666;23.366;2022-11-20T04:43:56;3.28;;;0.90;;
40204;SDS011;26963;42.666;23.366;2022-11-20T04:46:28;3.33;;;1.20;;
40204;SDS011;26963;42.666;23.366;2022-11-20T04:48:55;1.50;;;0.80;;
40204;SDS011;26963;42.666;23.366;2022-11-20T04:51:21;3.03;;;0.90;;
40204;SDS011;26963;42.666;23.366;2022-11-20T04:53:47;3.63;;;1.38;;
40204;SDS011;26963;42.666;23.366;2022-11-20T04:56:13;2.20;;;1.00;;
40204;SDS011;26963;42.666;23.366;2022-11-20T04:58:39;3.13;;;1.10;;
40204;SDS011;26963;42.666;23.366;2022-11-20T05:01:06;3.35;;;1.13;;
40204;SDS011;26963;42.666;23.366;2022-11-20T05:03:43;5.03;;;1.00;;
40204;SDS011;26963;42.666;23.366;2022-11-20T05:06:10;2.75;;;1.20;;
40204;SDS011;26963;42.666;23.366;2022-11-20T05:08:37;1.63;;;0.90;;
40204;SDS011;26963;42.666;23.366;2022-11-20T05:11:09;3.03;;;1.33;;
40204;SDS011;26963;42.666;23.366;2022-11-20T05:13:36;2.88;;;1.10;;
40204;SDS011;26963;42.666;23.366;2022-11-20T05:16:06;1.98;;;0.90;;
40204;SDS011;26963;42.666;23.366;2022-11-20T05:18:33;4.05;;;1.30;;
40204;SDS011;26963;42.666;23.366;2022-11-20T05:20:59;2.08;;;0.98;;
40204;SDS011;26963;42.666;23.366;2022-11-20T05:23:25;1.50;;;0.95;;
40204;SDS011;26963;42.666;23.366;2022-11-20T05:25:52;2.50;;;1.13;;
40204;SDS011;26963;42.666;23.366;2022-11-20T05:28:19;2.00;;;0.95;;
40204;SDS011;26963;42.666;23.366;2022-11-20T05:30:44;5.53;;;1.30;;
40204;SDS011;26963;42.666;23.366;2022-11-20T05:33:10;5.22;;;1.20;;
40204;SDS011;26963;42.666;23.366;2022-11-20T05:35:35;3.50;;;1.00;;
40204;SDS011;26963;42.666;23.366;2022-11-20T05:38:01;4.47;;;1.25;;
40204;SDS011;26963;42.666;23.366;2022-11-20T05:40:26;5.97;;;1.20;;
40204;SDS011;26963;42.666;23.366;2022-11-20T05:42:52;4.90;;;1.70;;
40204;SDS011;26963;42.666;23.366;2022-11-20T05:45:18;4.35;;;1.23;;
40204;SDS011;26963;42.666;23.366;2022-11-20T05:47:43;3.58;;;1.35;;
40204;SDS011;26963;42.666;23.366;2022-11-20T05:50:09;5.57;;;1.83;;
40204;SDS011;26963;42.666;23.366;2022-11-20T05:52:34;6.80;;;3.90;;
40204;SDS011;26963;42.666;23.366;2022-11-20T05:55:00;4.32;;;1.38;;
40204;SDS011;26963;42.666;23.366;2022-11-20T05:57:25;3.97;;;1.90;;
40204;SDS011;26963;42.666;23.366;2022-11-20T05:59:51;5.85;;;2.50;;
40204;SDS011;26963;42.666;23.366;2022-11-20T06:02:16;5.63;;;2.45;;
40204;SDS011;26963;42.666;23.366;2022-11-20T06:04:42;7.47;;;2.13;;
40204;SDS011;26963;42.666;23.366;2022-11-20T06:07:07;7.57;;;2.67;;
40204;SDS011;26963;42.666;23.366;2022-11-20T06:09:33;6.68;;;1.90;;
40204;SDS011;26963;42.666;23.366;2022-11-20T06:11:59;3.28;;;1.48;;
40204;SDS011;26963;42.666;23.366;2022-11-20T06:14:24;6.10;;;2.97;;
40204;SDS011;26963;42.666;23.366;2022-11-20T06:16:50;4.82;;;2.00;;
40204;SDS011;26963;42.666;23.366;2022-11-20T06:19:15;4.70;;;2.60;;
40204;SDS011;26963;42.666;23.366;2022-11-20T06:21:41;3.95;;;1.95;;
40204;SDS011;26963;42.666;23.366;2022-11-20T06:24:06;3.17;;;1.42;;
40204;SDS011;26963;42.666;23.366;2022-11-20T06:26:34;4.65;;;2.10;;
40204;SDS011;26963;42.666;23.366;2022-11-20T06:29:00;4.47;;;1.90;;
40204;SDS011;26963;42.666;23.366;2022-11-20T06:31:25;7.70;;;2.88;;
40204;SDS011;26963;42.666;23.366;2022-11-20T06:33:51;9.02;;;3.30;;
40204;SDS011;26963;42.666;23.366;2022-11-20T06:36:18;6.18;;;2.47;;
40204;SDS011;26963;42.666;23.366;2022-11-20T06:38:45;9.35;;;2.03;;
40204;SDS011;26963;42.666;23.366;2022-11-20T06:41:12;4.15;;;1.90;;
40204;SDS011;26963;42.666;23.366;2022-11-20T06:43:42;5.40;;;1.52;;
40204;SDS011;26963;42.666;23.366;2022-11-20T06:46:09;6.05;;;2.22;;
40204;SDS011;26963;42.666;23.366;2022-11-20T06:48:36;6.95;;;2.70;;
40204;SDS011;26963;42.666;23.366;2022-11-20T06:51:05;9.40;;;3.00;;
40204;SDS011;26963;42.666;23.366;2022-11-20T06:53:32;5.20;;;1.90;;
40204;SDS011;26963;42.666;23.366;2022-11-20T06:55:58;8.20;;;4.53;;
40204;SDS011;26963;42.666;23.366;2022-11-20T06:58:26;6.18;;;2.97;;
40204;SDS011;26963;42.666;23.366;2022-11-20T07:00:53;6.75;;;2.80;;
40204;SDS011;26963;42.666;23.366;2022-11-20T07:03:19;7.65;;;2.65;;
40204;SDS011;26963;42.666;23.366;2022-11-20T07:05:44;4.63;;;1.38;;
40204;SDS011;26963;42.666;23.366;2022-11-20T07:08:11;5.55;;;2.00;;
40204;SDS011;26963;42.666;23.366;2022-11-20T07:10:37;6.88;;;2.28;;
40204;SDS011;26963;42.666;23.366;2022-11-20T07:13:03;6.90;;;1.80;;
40204;SDS011;26963;42.666;23.366;2022-11-20T07:15:29;5.90;;;2.17;;
40204;SDS011;26963;42.666;23.366;2022-11-20T07:17:55;4.43;;;1.50;;
40204;SDS011;26963;42.666;23.366;2022-11-20T07:20:23;4.18;;;1.52;;
40204;SDS011;26963;42.666;23.366;2022-11-20T07:22:52;8.00;;;2.85;;
40204;SDS011;26963;42.666;23.366;2022-11-20T07:25:19;3.67;;;2.00;;
40204;SDS011;26963;42.666;23.366;2022-11-20T07:27:45;5.90;;;2.45;;
40204;SDS011;26963;42.666;23.366;2022-11-20T07:30:11;5.18;;;2.75;;
40204;SDS011;26963;42.666;23.366;2022-11-20T07:32:37;6.85;;;3.22;;
40204;SDS011;26963;42.666;23.366;2022-11-20T07:35:02;10.23;;;4.82;;
40204;SDS011;26963;42.666;23.366;2022-11-20T07:37:28;4.70;;;2.22;;
40204;SDS011;26963;42.666;23.366;2022-11-20T07:39:53;7.38;;;3.63;;
40204;SDS011;26963;42.666;23.366;2022-11-20T07:42:19;6.13;;;3.75;;
40204;SDS011;26963;42.666;23.366;2022-11-20T07:44:44;6.00;;;1.90;;
40204;SDS011;26963;42.666;23.366;2022-11-20T07:47:10;8.38;;;3.00;;
40204;SDS011;26963;42.666;23.366;2022-11-20T07:49:35;8.80;;;1.92;;
40204;SDS011;26963;42.666;23.366;2022-11-20T07:52:01;3.88;;;1.67;;
40204;SDS011;26963;42.666;23.366;2022-11-20T07:54:26;5.28;;;1.67;;
40204;SDS011;26963;42.666;23.366;2022-11-20T07:56:52;4.50;;;1.38;;
40204;SDS011;26963;42.666;23.366;2022-11-20T07:59:19;6.88;;;1.40;;
40204;SDS011;26963;42.666;23.366;2022-11-20T08:01:44;6.85;;;1.70;;
40204;SDS011;26963;42.666;23.366;2022-11-20T08:04:10;4.78;;;1.40;;
40204;SDS011;26963;42.666;23.366;2022-11-20T08:06:36;6.63;;;2.00;;
40204;SDS011;26963;42.666;23.366;2022-11-20T08:09:02;7.55;;;2.08;;
40204;SDS011;26963;42.666;23.366;2022-11-20T08:11:27;3.60;;;1.50;;
40204;SDS011;26963;42.666;23.366;2022-11-20T08:14:12;10.15;;;4.45;;
40204;SDS011;26963;42.666;23.366;2022-11-20T08:16:38;7.50;;;1.70;;
40204;SDS011;26963;42.666;23.366;2022-11-20T08:19:04;6.72;;;1.55;;
40204;SDS011;26963;42.666;23.366;2022-11-20T08:21:30;7.38;;;1.67;;
40204;SDS011;26963;42.666;23.366;2022-11-20T08:23:56;7.63;;;2.05;;
40204;SDS011;26963;42.666;23.366;2022-11-20T08:26:22;11.48;;;4.97;;
40204;SDS011;26963;42.666;23.366;2022-11-20T08:28:48;8.55;;;2.10;;
40204;SDS011;26963;42.666;23.366;2022-11-20T08:31:14;7.47;;;2.00;;
40204;SDS011;26963;42.666;23.366;2022-11-20T08:33:40;9.02;;;1.98;;
40204;SDS011;26963;42.666;23.366;2022-11-20T08:36:06;7.55;;;2.15;;
40204;SDS011;26963;42.666;23.366;2022-11-20T08:38:31;9.55;;;2.00;;
40204;SDS011;26963;42.666;23.366;2022-11-20T08:40:58;4.68;;;1.98;;
40204;SDS011;26963;42.666;23.366;2022-11-20T08:43:43;7.53;;;1.98;;
40204;SDS011;26963;42.666;23.366;2022-11-20T08:46:08;9.80;;;1.60;;
40204;SDS011;26963;42.666;23.366;2022-11-20T08:48:34;8.63;;;1.88;;
40204;SDS011;26963;42.666;23.366;2022-11-20T08:50:59;6.93;;;2.22;;
40204;SDS011;26963;42.666;23.366;2022-11-20T08:53:25;9.50;;;3.30;;
40204;SDS011;26963;42.666;23.366;2022-11-20T08:55:52;8.40;;;2.70;;
40204;SDS011;26963;42.666;23.366;2022-11-20T08:58:17;10.18;;;2.60;;
40204;SDS011;26963;42.666;23.366;2022-11-20T09:00:43;6.53;;;1.90;;
40204;SDS011;26963;42.666;23.366;2022-11-20T09:03:08;6.32;;;2.20;;
40204;SDS011;26963;42.666;23.366;2022-11-20T09:05:34;6.13;;;1.88;;
40204;SDS011;26963;42.666;23.366;2022-11-20T09:07:59;7.47;;;2.40;;
40204;SDS011;26963;42.666;23.366;2022-11-20T09:10:25;4.90;;;2.00;;
40204;SDS011;26963;42.666;23.366;2022-11-20T09:12:52;4.65;;;1.92;;
40204;SDS011;26963;42.666;23.366;2022-11-20T09:15:18;7.18;;;1.90;;
40204;SDS011;26963;42.666;23.366;2022-11-20T09:17:59;8.80;;;2.10;;
40204;SDS011;26963;42.666;23.366;2022-11-20T09:20:27;5.07;;;1.70;;
40204;SDS011;26963;42.666;23.366;2022-11-20T09:22:54;3.70;;;2.00;;
40204;SDS011;26963;42.666;23.366;2022-11-20T09:25:20;6.18;;;2.33;;
40204;SDS011;26963;42.666;23.366;2022-11-20T09:27:45;4.90;;;2.08;;
40204;SDS011;26963;42.666;23.366;2022-11-20T09:30:12;5.35;;;2.58;;
40204;SDS011;26963;42.666;23.366;2022-11-20T09:32:38;5.93;;;3.22;;
40204;SDS011;26963;42.666;23.366;2022-11-20T09:35:04;5.40;;;2.53;;
40204;SDS011;26963;42.666;23.366;2022-11-20T09:37:30;7.22;;;4.75;;
40204;SDS011;26963;42.666;23.366;2022-11-20T09:39:55;6.47;;;4.22;;
40204;SDS011;26963;42.666;23.366;2022-11-20T09:55:54;5.07;;;1.50;;
40204;SDS011;26963;42.666;23.366;2022-11-20T10:01:19;5.63;;;1.67;;
40204;SDS011;26963;42.666;23.366;2022-11-20T10:06:30;4.75;;;1.67;;
40204;SDS011;26963;42.666;23.366;2022-11-20T10:09:20;7.25;;;1.80;;
40204;SDS011;26963;42.666;23.366;2022-11-20T10:12:21;4.85;;;1.80;;
40204;SDS011;26963;42.666;23.366;2022-11-20T10:21:51;5.75;;;2.75;;
40204;SDS011;26963;42.666;23.366;2022-11-20T10:31:33;8.55;;;4.22;;
40204;SDS011;26963;42.666;23.366;2022-11-20T10:36:50;10.80;;;4.68;;
40204;SDS011;26963;42.666;23.366;2022-11-20T10:42:11;11.25;;;6.30;;
40204;SDS011;26963;42.666;23.366;2022-11-20T10:44:51;15.85;;;7.43;;
40204;SDS011;26963;42.666;23.366;2022-11-20T10:47:26;10.30;;;6.05;;
40204;SDS011;26963;42.666;23.366;2022-11-20T10:49:53;12.00;;;6.85;;
40204;SDS011;26963;42.666;23.366;2022-11-20T10:55:30;8.32;;;4.15;;
40204;SDS011;26963;42.666;23.366;2022-11-20T11:00:42;9.93;;;3.90;;
40204;SDS011;26963;42.666;23.366;2022-11-20T11:03:40;11.18;;;4.35;;
40204;SDS011;26963;42.666;23.366;2022-11-20T11:08:34;7.25;;;3.90;;
40204;SDS011;26963;42.666;23.366;2022-11-20T11:11:08;11.48;;;4.57;;
40204;SDS011;26963;42.666;23.366;2022-11-20T11:13:35;12.52;;;5.97;;
40204;SDS011;26963;42.666;23.366;2022-11-20T11:16:00;13.18;;;6.63;;
40204;SDS011;26963;42.666;23.366;2022-11-20T11:18:32;16.02;;;5.78;;
40204;SDS011;26963;42.666;23.366;2022-11-20T11:21:00;4.53;;;2.30;;
40204;SDS011;26963;42.666;23.366;2022-11-20T11:23:38;7.18;;;2.05;;
40204;SDS011;26963;42.666;23.366;2022-11-20T11:26:06;5.22;;;2.00;;
40204;SDS011;26963;42.666;23.366;2022-11-20T11:28:52;4.75;;;1.50;;
40204;SDS011;26963;42.666;23.366;2022-11-20T11:31:26;1.35;;;0.93;;
40204;SDS011;26963;42.666;23.366;2022-11-20T11:34:06;4.13;;;1.20;;
40204;SDS011;26963;42.666;23.366;2022-11-20T11:36:33;2.42;;;1.10;;
40204;SDS011;26963;42.666;23.366;2022-11-20T11:39:00;2.00;;;1.13;;
40204;SDS011;26963;42.666;23.366;2022-11-20T11:41:30;1.55;;;0.95;;
40204;SDS011;26963;42.666;23.366;2022-11-20T11:44:21;3.60;;;1.10;;
40204;SDS011;26963;42.666;23.366;2022-11-20T11:47:31;2.05;;;1.20;;
40204;SDS011;26963;42.666;23.366;2022-11-20T11:52:58;2.42;;;1.33;;
40204;SDS011;26963;42.666;23.366;2022-11-20T12:00:38;5.07;;;1.00;;
40204;SDS011;26963;42.666;23.366;2022-11-20T12:03:14;7.05;;;1.25;;
40204;SDS011;26963;42.666;23.366;2022-11-20T12:05:49;4.20;;;1.10;;
40204;SDS011;26963;42.666;23.366;2022-11-20T12:08:24;6.88;;;1.50;;
40204;SDS011;26963;42.666;23.366;2022-11-20T12:13:35;4.18;;;1.35;;
40204;SDS011;26963;42.666;23.366;2022-11-20T12:16:09;2.22;;;1.10;;
40204;SDS011;26963;42.666;23.366;2022-11-20T12:18:38;2.40;;;0.83;;
40204;SDS011;26963;42.666;23.366;2022-11-20T12:21:18;2.72;;;0.90;;
40204;SDS011;26963;42.666;23.366;2022-11-20T12:32:11;1.67;;;0.60;;
40204;SDS011;26963;42.666;23.366;2022-11-20T12:48:46;3.88;;;0.90;;
40204;SDS011;26963;42.666;23.366;2022-11-20T12:51:30;4.53;;;1.27;;
40204;SDS011;26963;42.666;23.366;2022-11-20T12:54:05;3.60;;;1.20;;
40204;SDS011;26963;42.666;23.366;2022-11-20T12:56:54;5.25;;;1.42;;
40204;SDS011;26963;42.666;23.366;2022-11-20T13:05:32;4.43;;;2.20;;
40204;SDS011;26963;42.666;23.366;2022-11-20T13:08:08;7.35;;;3.00;;
40204;SDS011;26963;42.666;23.366;2022-11-20T13:10:52;13.98;;;5.30;;
40204;SDS011;26963;42.666;23.366;2022-11-20T13:18:40;8.68;;;3.00;;
40204;SDS011;26963;42.666;23.366;2022-11-20T13:21:41;6.30;;;3.15;;
40204;SDS011;26963;42.666;23.366;2022-11-20T13:26:59;8.40;;;4.00;;
40204;SDS011;26963;42.666;23.366;2022-11-20T13:29:29;7.72;;;2.65;;
40204;SDS011;26963;42.666;23.366;2022-11-20T13:37:37;6.80;;;2.25;;
40204;SDS011;26963;42.666;23.366;2022-11-20T13:40:12;6.80;;;2.60;;
40204;SDS011;26963;42.666;23.366;2022-11-20T13:45:11;6.57;;;2.88;;
40204;SDS011;26963;42.666;23.366;2022-11-20T13:47:51;5.93;;;2.55;;
40204;SDS011;26963;42.666;23.366;2022-11-20T13:50:18;6.40;;;2.40;;
40204;SDS011;26963;42.666;23.366;2022-11-20T13:53:08;6.15;;;2.53;;
40204;SDS011;26963;42.666;23.366;2022-11-20T13:55:39;6.40;;;2.80;;
40204;SDS011;26963;42.666;23.366;2022-11-20T13:58:29;11.18;;;3.17;;
40204;SDS011;26963;42.666;23.366;2022-11-20T14:01:19;8.93;;;5.60;;
40204;SDS011;26963;42.666;23.366;2022-11-20T14:03:48;8.95;;;4.20;;
40204;SDS011;26963;42.666;23.366;2022-11-20T14:08:57;5.95;;;2.70;;
40204;SDS011;26963;42.666;23.366;2022-11-20T14:11:25;7.72;;;2.63;;
40204;SDS011;26963;42.666;23.366;2022-11-20T14:13:59;6.50;;;3.00;;
40204;SDS011;26963;42.666;23.366;2022-11-20T14:16:34;9.45;;;3.25;;
40204;SDS011;26963;42.666;23.366;2022-11-20T14:21:52;9.90;;;5.35;;
40204;SDS011;26963;42.666;23.366;2022-11-20T14:24:33;9.00;;;4.35;;
40204;SDS011;26963;42.666;23.366;2022-11-20T14:26:59;6.60;;;3.72;;
40204;SDS011;26963;42.666;23.366;2022-11-20T14:29:28;6.95;;;3.38;;
40204;SDS011;26963;42.666;23.366;2022-11-20T14:31:59;7.65;;;3.80;;
40204;SDS011;26963;42.666;23.366;2022-11-20T14:34:31;6.95;;;3.50;;
40204;SDS011;26963;42.666;23.366;2022-11-20T14:37:03;8.68;;;3.58;;
40204;SDS011;26963;42.666;23.366;2022-11-20T14:39:31;7.32;;;3.30;;
40204;SDS011;26963;42.666;23.366;2022-11-20T14:41:59;8.95;;;4.20;;
40204;SDS011;26963;42.666;23.366;2022-11-20T14:44:30;7.68;;;4.00;;
40204;SDS011;26963;42.666;23.366;2022-11-20T14:46:59;9.38;;;4.70;;
40204;SDS011;26963;42.666;23.366;2022-11-20T14:49:26;9.02;;;5.20;;
40204;SDS011;26963;42.666;23.366;2022-11-20T14:51:59;9.82;;;5.20;;
40204;SDS011;26963;42.666;23.366;2022-11-20T14:54:26;11.43;;;5.03;;
40204;SDS011;26963;42.666;23.366;2022-11-20T14:57:02;11.10;;;5.25;;
40204;SDS011;26963;42.666;23.366;2022-11-20T14:59:30;10.70;;;5.63;;
40204;SDS011;26963;42.666;23.366;2022-11-20T15:02:08;8.52;;;4.97;;
40204;SDS011;26963;42.666;23.366;2022-11-20T15:04:46;8.23;;;4.53;;
40204;SDS011;26963;42.666;23.366;2022-11-20T15:07:42;8.98;;;4.43;;
40204;SDS011;26963;42.666;23.366;2022-11-20T15:12:56;10.18;;;4.40;;
40204;SDS011;26963;42.666;23.366;2022-11-20T15:17:56;8.05;;;5.15;;
40204;SDS011;26963;42.666;23.366;2022-11-20T15:20:24;8.85;;;4.47;;
40204;SDS011;26963;42.666;23.366;2022-11-20T15:22:54;7.37;;;3.60;;
40204;SDS011;26963;42.666;23.366;2022-11-20T15:25:19;7.10;;;3.40;;
40204;SDS011;26963;42.666;23.366;2022-11-20T15:27:45;6.60;;;3.30;;
40204;SDS011;26963;42.666;23.366;2022-11-20T15:30:16;7.55;;;2.90;;
40204;SDS011;26963;42.666;23.366;2022-11-20T15:32:44;5.32;;;2.60;;
40204;SDS011;26963;42.666;23.366;2022-11-20T15:35:10;8.77;;;2.72;;
40204;SDS011;26963;42.666;23.366;2022-11-20T15:37:36;7.03;;;2.60;;
40204;SDS011;26963;42.666;23.366;2022-11-20T15:40:02;3.25;;;2.30;;
40204;SDS011;26963;42.666;23.366;2022-11-20T15:42:29;5.60;;;2.90;;
40204;SDS011;26963;42.666;23.366;2022-11-20T15:44:54;5.38;;;2.95;;
40204;SDS011;26963;42.666;23.366;2022-11-20T15:47:20;5.93;;;2.53;;
40204;SDS011;26963;42.666;23.366;2022-11-20T15:49:52;4.22;;;2.60;;
40204;SDS011;26963;42.666;23.366;2022-11-20T15:52:17;6.47;;;3.22;;
40204;SDS011;26963;42.666;23.366;2022-11-20T15:54:43;7.15;;;3.15;;
40204;SDS011;26963;42.666;23.366;2022-11-20T15:57:08;5.72;;;3.30;;
40204;SDS011;26963;42.666;23.366;2022-11-20T15:59:34;5.90;;;2.88;;
40204;SDS011;26963;42.666;23.366;2022-11-20T16:02:02;5.10;;;3.15;;
40204;SDS011;26963;42.666;23.366;2022-11-20T16:04:27;6.22;;;3.35;;
40204;SDS011;26963;42.666;23.366;2022-11-20T16:06:53;5.15;;;2.58;;
40204;SDS011;26963;42.666;23.366;2022-11-20T16:09:18;4.63;;;2.67;;
40204;SDS011;26963;42.666;23.366;2022-11-20T16:11:44;6.22;;;2.88;;
40204;SDS011;26963;42.666;23.366;2022-11-20T16:14:10;5.30;;;2.67;;
40204;SDS011;26963;42.666;23.366;2022-11-20T16:16:54;5.47;;;2.47;;
40204;SDS011;26963;42.666;23.366;2022-11-20T16:19:20;4.30;;;2.53;;
40204;SDS011;26963;42.666;23.366;2022-11-20T16:21:46;6.70;;;2.75;;
40204;SDS011;26963;42.666;23.366;2022-11-20T16:24:12;7.10;;;3.58;;
40204;SDS011;26963;42.666;23.366;2022-11-20T16:26:39;9.25;;;4.55;;
40204;SDS011;26963;42.666;23.366;2022-11-20T16:29:05;7.00;;;3.53;;
40204;SDS011;26963;42.666;23.366;2022-11-20T16:31:32;7.18;;;4.10;;
40204;SDS011;26963;42.666;23.366;2022-11-20T16:33:59;5.63;;;2.75;;
40204;SDS011;26963;42.666;23.366;2022-11-20T16:36:29;7.22;;;2.63;;
40204;SDS011;26963;42.666;23.366;2022-11-20T16:38:59;5.38;;;2.13;;
40204;SDS011;26963;42.666;23.366;2022-11-20T16:41:27;4.22;;;2.25;;
40204;SDS011;26963;42.666;23.366;2022-11-20T16:43:56;5.20;;;2.70;;
40204;SDS011;26963;42.666;23.366;2022-11-20T16:46:23;5.60;;;2.10;;